createdAt,value
2017-07-22T00:00:11.215Z,66.38
2017-07-22T00:02:38.607Z,66.66
2017-07-22T00:05:06.002Z,66.48
2017-07-22T00:07:33.411Z,65.87
2017-07-22T00:10:00.808Z,65.76
2017-07-22T00:12:28.199Z,66.04
2017-07-22T00:14:55.607Z,66.88
2017-07-22T00:17:23.014Z,67.53
2017-07-22T00:19:50.412Z,67.80
2017-07-22T00:22:17.835Z,67.95
2017-07-22T00:24:45.230Z,68.62
2017-07-22T00:27:12.633Z,67.26
2017-07-22T00:29:40.043Z,63.40
2017-07-22T00:32:07.436Z,65.56
2017-07-22T00:34:34.830Z,66.11
2017-07-22T00:37:02.245Z,67.81
2017-07-22T00:39:29.639Z,69.66
2017-07-22T00:41:57.030Z,71.65
2017-07-22T00:44:24.438Z,71.43
2017-07-22T00:46:51.844Z,73.73
2017-07-22T00:49:19.240Z,74.15
2017-07-22T00:51:46.656Z,74.88
2017-07-22T00:54:14.048Z,74.84
2017-07-22T00:56:41.449Z,76.47
2017-07-22T00:59:08.856Z,77.74
2017-07-22T01:01:36.254Z,77.77
2017-07-22T01:04:03.650Z,77.97
2017-07-22T01:06:31.063Z,78.46
2017-07-22T01:08:58.464Z,78.58
2017-07-22T01:11:25.857Z,78.75
2017-07-22T01:13:53.263Z,79.24
2017-07-22T01:16:20.663Z,79.99
2017-07-22T01:18:48.056Z,80.48
2017-07-22T01:21:15.477Z,79.79
2017-07-22T01:23:42.867Z,80.44
2017-07-22T01:26:10.269Z,80.90
2017-07-22T01:28:37.667Z,81.28
2017-07-22T01:31:05.069Z,80.38
2017-07-22T01:33:32.458Z,80.22
2017-07-22T01:35:59.870Z,80.07
2017-07-22T01:38:27.271Z,80.75
2017-07-22T01:40:54.667Z,79.24
2017-07-22T01:43:22.090Z,79.90
2017-07-22T01:45:49.493Z,81.12
2017-07-22T01:48:16.894Z,81.16
2017-07-22T01:50:44.311Z,81.06
2017-07-22T01:53:11.707Z,81.16
2017-07-22T01:55:39.103Z,81.45
2017-07-22T01:58:06.528Z,82.16
2017-07-22T02:00:33.919Z,82.41
2017-07-22T02:03:01.320Z,82.51
2017-07-22T02:05:28.743Z,82.64
2017-07-22T02:07:56.135Z,82.96
2017-07-22T02:10:23.540Z,82.93
2017-07-22T02:12:50.959Z,83.63
2017-07-22T02:15:18.964Z,82.90
2017-07-22T02:17:46.363Z,83.10
2017-07-22T02:20:13.771Z,84.41
2017-07-22T02:22:41.162Z,84.31
2017-07-22T02:25:08.567Z,84.04
2017-07-22T02:27:35.979Z,84.76
2017-07-22T02:30:03.378Z,83.88
2017-07-22T02:32:30.787Z,84.94
2017-07-22T02:34:58.200Z,84.61
2017-07-22T02:37:25.588Z,85.04
2017-07-22T02:39:52.992Z,85.56
2017-07-22T02:42:20.400Z,85.42
2017-07-22T02:44:47.800Z,85.60
2017-07-22T02:47:15.192Z,85.48
2017-07-22T02:49:42.611Z,85.23
2017-07-22T02:52:10.004Z,85.60
2017-07-22T02:54:37.406Z,86.06
2017-07-22T02:57:04.815Z,85.37
2017-07-22T02:59:32.215Z,85.70
2017-07-22T03:01:59.619Z,85.76
2017-07-22T03:04:27.027Z,85.81
2017-07-22T03:06:54.424Z,85.87
2017-07-22T03:09:21.816Z,86.02
2017-07-22T03:11:49.226Z,85.86
2017-07-22T03:14:16.627Z,86.23
2017-07-22T03:16:44.037Z,86.24
2017-07-22T03:19:11.449Z,85.89
2017-07-22T03:21:38.841Z,86.33
2017-07-22T03:24:06.245Z,86.42
2017-07-22T03:26:33.653Z,86.38
2017-07-22T03:29:01.054Z,86.41
2017-07-22T03:31:28.448Z,86.49
2017-07-22T03:33:55.859Z,86.46
2017-07-22T03:36:23.256Z,86.42
2017-07-22T03:38:50.651Z,86.50
2017-07-22T03:41:18.076Z,86.53
2017-07-22T03:43:45.471Z,86.43
2017-07-22T03:46:12.883Z,86.52
2017-07-22T03:48:40.291Z,86.61
2017-07-22T03:51:07.683Z,87.09
2017-07-22T03:53:35.086Z,87.64
2017-07-22T03:56:02.505Z,87.77
2017-07-22T03:58:29.899Z,87.77
2017-07-22T04:00:57.291Z,87.83
2017-07-22T04:03:24.699Z,87.89
2017-07-22T04:05:52.103Z,87.67
2017-07-22T04:08:19.499Z,87.70
2017-07-22T04:10:46.909Z,87.75
2017-07-22T04:13:14.308Z,87.71
2017-07-22T04:15:41.700Z,87.81
2017-07-22T04:18:09.115Z,87.25
2017-07-22T04:20:36.512Z,87.38
2017-07-22T04:23:03.904Z,87.50
2017-07-22T04:25:31.318Z,87.81
2017-07-22T04:27:58.714Z,87.72
2017-07-22T04:30:26.123Z,87.63
2017-07-22T04:32:53.531Z,87.57
2017-07-22T04:35:20.923Z,87.64
2017-07-22T04:37:48.318Z,87.46
2017-07-22T04:40:15.726Z,87.58
2017-07-22T04:42:43.129Z,87.69
2017-07-22T04:45:10.521Z,87.55
2017-07-22T04:47:37.923Z,87.19
2017-07-22T04:50:05.327Z,86.85
2017-07-22T04:52:32.719Z,86.58
2017-07-22T04:55:00.136Z,86.71
2017-07-22T04:57:27.526Z,85.59
2017-07-22T04:59:54.922Z,85.19
2017-07-22T05:02:22.331Z,85.01
2017-07-22T05:04:49.724Z,84.80
2017-07-22T05:07:17.114Z,85.00
2017-07-22T05:09:44.537Z,85.41
2017-07-22T05:12:11.936Z,85.54
2017-07-22T05:14:39.324Z,85.73
2017-07-22T05:17:06.754Z,86.02
2017-07-22T05:19:34.146Z,86.38
2017-07-22T05:22:01.544Z,86.06
2017-07-22T05:24:28.958Z,86.56
2017-07-22T05:26:56.347Z,86.66
2017-07-22T05:29:23.742Z,84.51
2017-07-22T05:31:51.161Z,84.54
2017-07-22T05:34:18.575Z,83.44
2017-07-22T05:36:45.969Z,84.06
2017-07-22T05:39:13.380Z,84.05
2017-07-22T05:41:40.779Z,83.95
2017-07-22T05:44:08.177Z,84.06
2017-07-22T05:46:35.582Z,83.62
2017-07-22T05:49:02.983Z,83.84
2017-07-22T05:51:30.372Z,82.87
2017-07-22T05:53:57.781Z,82.79
2017-07-22T05:56:25.181Z,82.71
2017-07-22T05:58:52.574Z,83.02
2017-07-22T06:01:19.991Z,82.78
2017-07-22T06:03:47.387Z,82.01
2017-07-22T06:06:14.783Z,82.66
2017-07-22T06:08:42.215Z,83.88
2017-07-22T06:11:09.606Z,81.86
2017-07-22T06:13:36.995Z,81.00
2017-07-22T06:16:04.400Z,80.77
2017-07-22T06:18:31.793Z,81.03
2017-07-22T06:20:59.187Z,81.35
2017-07-22T06:23:26.595Z,81.96
2017-07-22T06:25:53.983Z,81.77
2017-07-22T06:28:21.373Z,81.36
2017-07-22T06:30:48.811Z,81.65
2017-07-22T06:33:16.210Z,82.19
2017-07-22T06:35:43.607Z,82.19
2017-07-22T06:38:11.028Z,79.70
2017-07-22T06:40:38.436Z,80.65
2017-07-22T06:43:05.831Z,80.26
2017-07-22T06:45:33.234Z,81.03
2017-07-22T06:48:00.627Z,81.63
2017-07-22T06:50:28.023Z,80.90
2017-07-22T06:52:55.444Z,81.22
2017-07-22T06:55:23.717Z,81.91
2017-07-22T06:57:51.112Z,82.34
2017-07-22T07:00:18.516Z,82.56
2017-07-22T07:02:45.912Z,81.52
2017-07-22T07:05:13.299Z,81.97
2017-07-22T07:07:40.708Z,81.92
2017-07-22T07:10:08.096Z,81.10
2017-07-22T07:12:35.483Z,81.46
2017-07-22T07:15:02.887Z,81.54
2017-07-22T07:17:30.278Z,80.15
2017-07-22T07:19:57.671Z,80.73
2017-07-22T07:22:25.074Z,81.73
2017-07-22T07:24:52.472Z,80.19
2017-07-22T07:27:19.863Z,81.87
2017-07-22T07:29:47.275Z,81.31
2017-07-22T07:32:14.678Z,81.57
2017-07-22T07:34:45.242Z,80.01
2017-07-22T07:37:12.643Z,79.71
2017-07-22T07:39:40.044Z,78.05
2017-07-22T07:42:07.435Z,78.21
2017-07-22T07:44:34.846Z,77.80
2017-07-22T07:47:02.248Z,78.33
2017-07-22T07:49:29.676Z,77.11
2017-07-22T07:51:57.257Z,75.44
2017-07-22T07:54:24.643Z,77.18
2017-07-22T07:56:52.039Z,74.08
2017-07-22T07:59:19.455Z,75.95
2017-07-22T08:01:46.852Z,76.82
2017-07-22T08:04:14.240Z,75.63
2017-07-22T08:06:41.643Z,76.01
2017-07-22T08:09:09.035Z,73.49
2017-07-22T08:11:36.429Z,75.14
2017-07-22T08:14:03.832Z,71.75
2017-07-22T08:16:31.220Z,72.56
2017-07-22T08:18:58.639Z,69.75
2017-07-22T08:21:26.984Z,74.49
2017-07-22T08:23:54.423Z,73.25
2017-07-22T08:26:21.843Z,72.47
2017-07-22T08:28:49.278Z,69.01
2017-07-22T08:31:16.714Z,70.06
2017-07-22T08:33:44.111Z,69.10
2017-07-22T08:36:11.531Z,70.81
2017-07-22T08:38:38.928Z,68.36
2017-07-22T08:41:06.315Z,70.56
2017-07-22T08:43:33.747Z,69.30
2017-07-22T08:46:01.163Z,62.23
2017-07-22T08:48:28.602Z,65.05
2017-07-22T08:50:56.008Z,64.01
2017-07-22T08:53:23.396Z,65.94
2017-07-22T08:55:50.848Z,68.23
2017-07-22T08:58:18.263Z,61.63
2017-07-22T09:00:45.683Z,62.40
2017-07-22T09:03:13.085Z,62.18
2017-07-22T09:05:50.687Z,63.02
2017-07-22T09:08:18.107Z,60.77
2017-07-22T09:10:45.500Z,59.78
2017-07-22T09:13:12.922Z,59.47
2017-07-22T09:15:40.314Z,58.99
2017-07-22T09:18:07.720Z,58.70
2017-07-22T09:20:35.127Z,59.18
2017-07-22T09:23:02.527Z,62.19
2017-07-22T09:25:29.924Z,59.19
2017-07-22T09:27:57.327Z,58.98
2017-07-22T09:30:24.725Z,60.41
2017-07-22T09:32:52.137Z,60.16
2017-07-22T09:35:19.556Z,59.60
2017-07-22T09:37:46.947Z,59.91
2017-07-22T09:40:14.351Z,55.94
2017-07-22T09:42:41.769Z,57.62
2017-07-22T09:45:09.168Z,57.29
2017-07-22T09:47:36.555Z,60.10
2017-07-22T09:50:03.971Z,55.58
2017-07-22T09:52:31.364Z,57.94
2017-07-22T09:54:58.758Z,56.18
2017-07-22T09:57:26.163Z,57.07
2017-07-22T09:59:53.564Z,49.71
2017-07-22T10:02:20.955Z,51.32
2017-07-22T10:04:49.028Z,51.02
2017-07-22T10:07:16.928Z,49.82
2017-07-22T10:09:44.331Z,50.01
2017-07-22T10:12:11.735Z,49.78
2017-07-22T10:14:39.132Z,51.67
2017-07-22T10:17:06.519Z,47.90
2017-07-22T10:19:33.927Z,48.27
2017-07-22T10:22:01.375Z,53.23
2017-07-22T10:24:28.763Z,52.55
2017-07-22T10:26:56.175Z,52.92
2017-07-22T10:29:23.579Z,49.55
2017-07-22T10:31:50.966Z,47.21
2017-07-22T10:34:18.413Z,45.76
2017-07-22T10:36:45.816Z,45.14
2017-07-22T10:39:13.208Z,45.57
2017-07-22T10:41:40.644Z,47.21
2017-07-22T10:44:08.048Z,46.12
2017-07-22T10:46:39.023Z,46.00
2017-07-22T10:49:06.443Z,47.69
2017-07-22T10:51:33.842Z,44.84
2017-07-22T10:54:01.249Z,50.26
2017-07-22T10:56:28.678Z,43.78
2017-07-22T10:58:56.067Z,42.37
2017-07-22T11:01:23.467Z,41.63
2017-07-22T11:03:50.880Z,41.18
2017-07-22T11:06:18.279Z,49.28
2017-07-22T11:08:45.688Z,49.00
2017-07-22T11:11:13.166Z,45.42
2017-07-22T11:13:40.585Z,45.00
2017-07-22T11:16:07.966Z,45.10
2017-07-22T11:18:35.394Z,46.98
2017-07-22T11:21:02.799Z,49.61
2017-07-22T11:23:30.202Z,51.83
2017-07-22T11:25:57.611Z,56.99
2017-07-22T11:28:25.019Z,57.84
2017-07-22T11:30:52.419Z,63.63
2017-07-22T11:33:19.832Z,65.63
2017-07-22T11:35:47.270Z,65.17
2017-07-22T11:38:14.663Z,62.51
2017-07-22T11:40:42.079Z,61.60
2017-07-22T11:43:09.483Z,59.72
2017-07-22T11:45:36.908Z,53.76
2017-07-22T11:48:04.325Z,57.21
2017-07-22T11:50:31.739Z,54.14
2017-07-22T11:52:59.189Z,48.20
2017-07-22T11:55:26.599Z,53.87
2017-07-22T11:57:58.410Z,51.27
2017-07-22T12:00:31.610Z,51.97
2017-07-22T12:03:00.257Z,45.53
2017-07-22T12:05:29.357Z,47.89
2017-07-22T12:08:00.036Z,50.64
2017-07-22T12:16:12.635Z,52.48
2017-07-22T12:18:40.029Z,53.40
2017-07-22T12:21:07.423Z,48.06
2017-07-22T12:23:34.860Z,49.17
2017-07-22T12:26:02.244Z,46.01
2017-07-22T12:28:29.643Z,48.08
2017-07-22T12:30:57.051Z,51.74
2017-07-22T12:33:24.447Z,49.47
2017-07-22T12:35:51.868Z,50.08
2017-07-22T12:38:19.283Z,52.75
2017-07-22T12:40:46.683Z,54.38
2017-07-22T12:43:14.087Z,55.03
2017-07-22T12:45:41.516Z,55.39
2017-07-22T12:48:08.957Z,56.46
2017-07-22T12:50:36.367Z,57.04
2017-07-22T12:53:03.772Z,52.97
2017-07-22T12:55:31.207Z,53.61
2017-07-22T12:57:58.613Z,51.56
2017-07-22T13:00:26.031Z,53.60
2017-07-22T13:02:53.436Z,51.43
2017-07-22T13:05:20.831Z,51.70
2017-07-22T13:07:48.256Z,50.79
2017-07-22T13:10:15.676Z,44.96
2017-07-22T13:12:43.079Z,46.97
2017-07-22T13:15:10.491Z,46.80
2017-07-22T13:17:37.899Z,44.07
2017-07-22T13:20:05.307Z,42.69
2017-07-22T13:22:32.731Z,50.79
2017-07-22T13:25:00.152Z,43.17
2017-07-22T13:27:27.559Z,47.71
2017-07-22T13:29:54.995Z,50.64
2017-07-22T13:32:22.413Z,41.45
2017-07-22T13:34:49.807Z,43.50
2017-07-22T13:37:17.218Z,50.20
2017-07-22T13:39:44.615Z,41.15
2017-07-22T13:42:12.006Z,43.96
2017-07-22T13:44:39.423Z,44.35
2017-07-22T13:47:06.828Z,47.24
2017-07-22T13:49:34.219Z,49.26
2017-07-22T13:52:01.632Z,41.72
2017-07-22T13:54:29.024Z,40.85
2017-07-22T13:56:56.423Z,38.50
2017-07-22T13:59:23.840Z,43.54
2017-07-22T14:01:51.234Z,42.53
2017-07-22T14:04:18.628Z,39.61
2017-07-22T14:06:46.049Z,44.98
2017-07-22T14:09:13.440Z,40.61
2017-07-22T14:11:41.018Z,38.06
2017-07-22T14:14:08.433Z,39.55
2017-07-22T14:16:35.823Z,37.62
2017-07-22T14:19:03.216Z,39.42
2017-07-22T14:21:30.627Z,36.50
2017-07-22T14:23:58.019Z,36.26
2017-07-22T14:26:25.418Z,39.41
2017-07-22T14:28:52.856Z,40.01
2017-07-22T14:31:20.250Z,38.50
2017-07-22T14:33:47.648Z,42.20
2017-07-22T14:36:15.058Z,39.67
2017-07-22T14:38:42.447Z,36.45
2017-07-22T14:41:09.871Z,37.85
2017-07-22T14:43:37.288Z,36.76
2017-07-22T14:46:04.688Z,37.22
2017-07-22T14:48:32.083Z,37.37
2017-07-22T14:50:59.491Z,40.70
2017-07-22T14:53:26.891Z,37.54
2017-07-22T14:55:54.279Z,36.68
2017-07-22T14:58:21.692Z,38.14
2017-07-22T15:00:49.083Z,39.09
2017-07-22T15:03:16.479Z,37.48
2017-07-22T15:05:43.899Z,37.36
2017-07-22T15:08:11.295Z,37.47
2017-07-22T15:10:38.697Z,37.51
2017-07-22T15:13:06.122Z,36.80
2017-07-22T15:15:33.615Z,37.29
2017-07-22T15:18:01.075Z,42.77
2017-07-22T15:20:28.487Z,35.57
2017-07-22T15:22:55.884Z,36.76
2017-07-22T15:25:23.284Z,38.03
2017-07-22T15:27:50.705Z,37.68
2017-07-22T15:30:18.095Z,38.89
2017-07-22T15:32:45.491Z,36.81
2017-07-22T15:35:12.896Z,36.68
2017-07-22T15:37:40.292Z,35.62
2017-07-22T15:40:07.687Z,35.62
2017-07-22T15:42:35.100Z,37.23
2017-07-22T15:45:02.487Z,35.79
2017-07-22T15:47:29.890Z,35.82
2017-07-22T15:49:57.299Z,36.28
2017-07-22T15:52:24.691Z,34.27
2017-07-22T15:54:52.083Z,36.08
2017-07-22T15:57:19.503Z,35.65
2017-07-22T15:59:46.899Z,36.03
2017-07-22T16:02:14.319Z,34.88
2017-07-22T16:04:41.739Z,34.83
2017-07-22T16:07:09.128Z,35.54
2017-07-22T16:09:36.523Z,35.18
2017-07-22T16:12:03.943Z,34.89
2017-07-22T16:14:31.352Z,35.39
2017-07-22T16:16:58.753Z,36.11
2017-07-22T16:19:26.175Z,36.67
2017-07-22T16:21:53.582Z,36.27
2017-07-22T16:24:20.971Z,36.33
2017-07-22T16:26:48.384Z,36.76
2017-07-22T16:29:15.793Z,38.47
2017-07-22T16:31:43.195Z,36.98
2017-07-22T16:34:10.608Z,37.63
2017-07-22T16:36:38.007Z,38.28
2017-07-22T16:39:05.408Z,38.11
2017-07-22T16:41:32.828Z,38.43
2017-07-22T16:44:00.224Z,37.86
2017-07-22T16:46:27.626Z,38.57
2017-07-22T16:48:55.038Z,38.61
2017-07-22T16:51:22.427Z,38.21
2017-07-22T16:53:49.835Z,37.82
2017-07-22T16:56:17.248Z,36.63
2017-07-22T16:58:44.647Z,36.34
2017-07-22T17:01:12.052Z,37.20
2017-07-22T17:03:39.473Z,37.67
2017-07-22T17:06:06.872Z,37.83
2017-07-22T17:08:34.258Z,38.22
2017-07-22T17:11:01.668Z,38.03
2017-07-22T17:13:29.064Z,37.19
2017-07-22T17:16:01.100Z,37.92
2017-07-22T17:18:28.496Z,37.57
2017-07-22T17:20:55.899Z,37.71
2017-07-22T17:23:24.231Z,37.54
2017-07-22T17:25:51.642Z,37.75
2017-07-22T17:28:19.039Z,38.02
2017-07-22T17:30:46.452Z,38.05
2017-07-22T17:33:13.856Z,38.02
2017-07-22T17:35:41.356Z,37.73
2017-07-22T17:38:08.761Z,38.35
2017-07-22T17:40:36.152Z,38.32
2017-07-22T17:43:03.563Z,38.41
2017-07-22T17:45:30.987Z,37.69
2017-07-22T17:47:58.391Z,37.68
2017-07-22T17:50:25.799Z,38.19
2017-07-22T17:52:53.210Z,39.15
2017-07-22T17:55:20.606Z,39.68
2017-07-22T17:57:48.008Z,39.18
2017-07-22T18:00:15.467Z,39.27
2017-07-22T18:02:42.868Z,39.48
2017-07-22T18:05:10.275Z,40.50
2017-07-22T18:07:37.696Z,41.21
2017-07-22T18:10:05.098Z,41.06
2017-07-22T18:12:32.499Z,42.07
2017-07-22T18:14:59.911Z,41.50
2017-07-22T18:17:27.304Z,41.48
2017-07-22T18:19:54.724Z,42.52
2017-07-22T18:22:22.127Z,41.86
2017-07-22T18:24:49.527Z,42.35
2017-07-22T18:27:16.931Z,42.17
2017-07-22T18:29:44.361Z,42.75
2017-07-22T18:32:11.762Z,42.68
2017-07-22T18:34:39.162Z,43.04
2017-07-22T18:37:06.573Z,42.96
2017-07-22T18:39:33.975Z,43.04
2017-07-22T18:42:01.370Z,43.44
2017-07-22T18:44:28.779Z,44.38
2017-07-22T18:46:56.191Z,46.47
2017-07-22T18:49:23.619Z,44.78
2017-07-22T18:51:51.211Z,44.09
2017-07-22T18:54:18.607Z,44.52
2017-07-22T18:56:46.000Z,44.41
2017-07-22T18:59:13.420Z,44.44
2017-07-22T19:01:40.823Z,45.54
2017-07-22T19:04:08.236Z,45.78
2017-07-22T19:06:35.649Z,46.57
2017-07-22T19:09:03.051Z,47.22
2017-07-22T19:11:30.443Z,46.86
2017-07-22T19:13:57.864Z,47.05
2017-07-22T19:16:25.267Z,48.17
2017-07-22T19:18:52.667Z,47.20
2017-07-22T19:21:20.081Z,48.42
2017-07-22T19:23:47.489Z,48.38
2017-07-22T19:26:14.896Z,47.92
2017-07-22T19:28:42.312Z,48.38
2017-07-22T19:31:09.719Z,48.85
2017-07-22T19:33:37.111Z,50.14
2017-07-22T19:36:04.535Z,49.76
2017-07-22T19:38:31.939Z,52.30
2017-07-22T19:40:59.347Z,52.57
2017-07-22T19:43:26.764Z,52.27
2017-07-22T19:45:54.160Z,54.12
2017-07-22T19:48:21.552Z,53.94
2017-07-22T19:50:48.982Z,53.47
2017-07-22T19:53:16.378Z,53.88
2017-07-22T19:55:43.784Z,53.93
2017-07-22T19:58:11.207Z,54.36
2017-07-22T20:00:38.595Z,55.24
2017-07-22T20:03:05.994Z,55.98
2017-07-22T20:05:33.398Z,55.64
2017-07-22T20:08:00.803Z,56.04
2017-07-22T20:10:28.195Z,57.01
2017-07-22T20:12:55.609Z,56.72
2017-07-22T20:15:23.003Z,57.74
2017-07-22T20:17:50.406Z,58.63
2017-07-22T20:20:17.843Z,59.04
2017-07-22T20:22:45.251Z,59.35
2017-07-22T20:25:12.662Z,58.83
2017-07-22T20:27:40.077Z,57.83
2017-07-22T20:30:07.470Z,56.40
2017-07-22T20:32:34.871Z,56.36
2017-07-22T20:35:02.279Z,56.58
2017-07-22T20:37:29.687Z,57.73
2017-07-22T20:39:57.095Z,57.98
2017-07-22T20:42:24.505Z,58.64
2017-07-22T20:44:51.921Z,59.35
2017-07-22T20:47:19.307Z,59.42
2017-07-22T20:49:46.716Z,59.37
2017-07-22T20:52:14.113Z,59.07
2017-07-22T20:54:41.516Z,59.41
2017-07-22T20:57:08.927Z,57.53
2017-07-22T20:59:36.339Z,54.79
2017-07-22T21:02:03.739Z,55.04
2017-07-22T21:04:31.151Z,55.38
2017-07-22T21:06:58.547Z,55.68
2017-07-22T21:09:25.948Z,55.90
2017-07-22T21:11:53.362Z,57.97
2017-07-22T21:14:20.751Z,58.41
2017-07-22T21:16:48.147Z,60.69
2017-07-22T21:19:15.565Z,60.52
2017-07-22T21:21:42.961Z,60.40
2017-07-22T21:24:10.351Z,61.07
2017-07-22T21:26:37.861Z,61.25
2017-07-22T21:29:05.259Z,61.33
2017-07-22T21:31:32.656Z,61.10
2017-07-22T21:34:00.079Z,61.45
2017-07-22T21:36:27.480Z,62.00
2017-07-22T21:38:54.886Z,62.18
2017-07-22T21:41:22.289Z,62.81
2017-07-22T21:43:49.707Z,63.38
2017-07-22T21:46:17.102Z,64.09
2017-07-22T21:48:44.530Z,64.03
2017-07-22T21:51:11.935Z,64.77
2017-07-22T21:53:39.346Z,66.05
2017-07-22T21:56:06.755Z,66.53
2017-07-22T21:58:34.157Z,67.58
2017-07-22T22:01:01.555Z,67.65
2017-07-22T22:03:28.972Z,68.02
2017-07-22T22:05:56.366Z,68.10
2017-07-22T22:08:23.767Z,68.37
2017-07-22T22:10:51.182Z,71.29
2017-07-22T22:13:18.580Z,73.73
2017-07-22T22:15:45.978Z,77.42
2017-07-22T22:18:13.395Z,78.50
2017-07-22T22:20:40.792Z,81.18
2017-07-22T22:23:08.199Z,81.54
2017-07-22T22:25:35.615Z,81.92
2017-07-22T22:28:03.023Z,83.12
2017-07-22T22:30:30.423Z,83.49
2017-07-22T22:32:57.844Z,84.05
2017-07-22T22:35:25.243Z,84.36
2017-07-22T22:37:52.647Z,84.71
2017-07-22T22:40:20.053Z,85.07
2017-07-22T22:42:47.455Z,85.63
2017-07-22T22:45:14.868Z,85.89
2017-07-22T22:47:42.279Z,86.63
2017-07-22T22:50:09.675Z,87.33
2017-07-22T22:52:37.091Z,86.58
2017-07-22T22:55:04.504Z,87.12
2017-07-22T22:57:31.911Z,87.41
2017-07-22T22:59:59.307Z,87.09
2017-07-22T23:02:26.755Z,87.58
2017-07-22T23:04:54.155Z,87.98
2017-07-22T23:07:21.555Z,87.99
2017-07-22T23:09:48.971Z,87.71
2017-07-22T23:12:16.376Z,87.54
2017-07-22T23:14:43.768Z,87.33
2017-07-22T23:17:11.188Z,87.31
2017-07-22T23:19:38.595Z,87.03
2017-07-22T23:22:06.017Z,87.48
2017-07-22T23:24:33.423Z,87.59
2017-07-22T23:27:00.835Z,87.36
2017-07-22T23:29:28.236Z,87.67
2017-07-22T23:31:55.939Z,88.13
2017-07-22T23:34:23.339Z,87.68
2017-07-22T23:36:51.051Z,87.92
2017-07-22T23:39:18.476Z,88.14
2017-07-22T23:41:45.877Z,87.36
2017-07-22T23:44:13.271Z,87.64
2017-07-22T23:46:40.683Z,88.02
2017-07-22T23:49:08.088Z,87.93
2017-07-22T23:51:35.486Z,87.37
2017-07-22T23:54:02.898Z,87.19
2017-07-22T23:56:30.291Z,87.95
2017-07-22T23:58:57.683Z,88.34
